Time;durP1;ratioP1;P1;durP2;ratioP2;P2;SDS_P1;SDS_P2;PMS_P1;PMS_P2;Temp;Humidity;BMP_temperature;BMP_pressure;BME280_temperature;BME280_humidity;BME280_pressure;Samples;Min_cycle;Max_cycle;Signal;HPM_P1;HPM_P2
2024/02/02 00:00:16;;;;;;;41.60;21.00;;;4.80;92.20;;;;;;5075811;28;20198;-84
2024/02/02 00:02:42;;;;;;;41.53;21.83;;;4.80;92.10;;;;;;5075636;28;20206;-84
2024/02/02 00:05:08;;;;;;;34.47;18.00;;;4.80;92.00;;;;;;5076945;28;20202;-84
2024/02/02 00:07:34;;;;;;;36.43;21.87;;;4.80;92.10;;;;;;5075525;28;20182;-84
2024/02/02 00:10:00;;;;;;;35.90;20.47;;;4.80;92.00;;;;;;5075591;28;20186;-84
2024/02/02 00:12:26;;;;;;;43.43;20.37;;;4.80;92.00;;;;;;5076732;28;20251;-84
2024/02/02 00:14:52;;;;;;;34.13;18.13;;;4.80;92.00;;;;;;5076713;28;20177;-84
2024/02/02 00:17:20;;;;;;;42.30;21.37;;;4.80;91.90;;;;;;5076819;28;20171;-84
2024/02/02 00:19:46;;;;;;;34.80;19.10;;;4.80;91.80;;;;;;5075423;28;20627;-84
2024/02/02 00:22:12;;;;;;;35.27;18.67;;;4.80;91.60;;;;;;5075298;28;20234;-84
2024/02/02 00:24:37;;;;;;;29.27;19.47;;;4.80;91.60;;;;;;5076786;28;20269;-85
2024/02/02 00:27:04;;;;;;;27.47;11.50;;;4.80;91.50;;;;;;5075308;28;20232;-85
2024/02/02 00:29:29;;;;;;;22.17;10.10;;;4.80;91.40;;;;;;5075788;28;20698;-85
2024/02/02 00:31:55;;;;;;;23.43;10.90;;;4.80;91.10;;;;;;5074966;28;20286;-85
2024/02/02 00:34:20;;;;;;;34.03;13.00;;;4.80;91.10;;;;;;5076220;28;20174;-84
2024/02/02 00:36:46;;;;;;;24.30;13.03;;;4.90;91.20;;;;;;5076280;28;20253;-85
2024/02/02 00:39:12;;;;;;;33.63;11.90;;;4.90;91.20;;;;;;5076140;28;20175;-84
2024/02/02 00:41:37;;;;;;;36.97;11.53;;;4.80;91.20;;;;;;5074809;28;20205;-85
2024/02/02 00:44:04;;;;;;;22.63;12.10;;;4.80;91.20;;;;;;5076367;28;20185;-86
2024/02/02 00:46:30;;;;;;;42.53;12.37;;;4.80;91.40;;;;;;5074886;28;20673;-86
2024/02/02 00:48:55;;;;;;;28.60;11.73;;;4.80;91.50;;;;;;5075006;28;20182;-85
2024/02/02 00:51:21;;;;;;;22.40;9.63;;;4.80;91.50;;;;;;5075726;28;20209;-85
2024/02/02 00:53:47;;;;;;;38.07;12.03;;;4.80;91.70;;;;;;5075870;28;20213;-85
2024/02/02 00:56:13;;;;;;;39.87;12.83;;;4.80;91.80;;;;;;5074694;28;20643;-85
2024/02/02 00:58:38;;;;;;;28.13;11.53;;;4.80;91.80;;;;;;5075969;28;20174;-85
2024/02/02 01:01:04;;;;;;;29.57;10.83;;;4.80;91.80;;;;;;5074427;28;20198;-85
2024/02/02 01:03:33;;;;;;;36.03;12.50;;;4.90;91.70;;;;;;5074669;28;20170;-85
2024/02/02 01:05:59;;;;;;;36.87;11.70;;;4.80;91.70;;;;;;5074548;28;20178;-85
2024/02/02 01:08:25;;;;;;;30.10;10.43;;;4.90;91.80;;;;;;5075947;28;20171;-85
2024/02/02 01:10:50;;;;;;;29.07;11.90;;;4.80;91.90;;;;;;5075797;28;20581;-84
2024/02/02 01:13:16;;;;;;;33.83;11.90;;;4.90;91.90;;;;;;5075716;28;20209;-85
2024/02/02 01:15:41;;;;;;;33.03;12.30;;;4.90;91.90;;;;;;5075708;28;20261;-85
2024/02/02 01:18:07;;;;;;;18.37;10.10;;;5.00;91.80;;;;;;5074520;28;20227;-85
2024/02/02 01:20:34;;;;;;;31.47;10.73;;;5.00;91.80;;;;;;5074316;28;20186;-84
2024/02/02 01:23:00;;;;;;;28.47;10.53;;;5.00;91.80;;;;;;5075416;28;20195;-84
2024/02/02 01:25:29;;;;;;;27.27;11.53;;;5.00;91.80;;;;;;5075359;28;20189;-85
2024/02/02 01:27:55;;;;;;;33.47;12.23;;;5.00;91.90;;;;;;5074210;28;20560;-84
2024/02/02 01:30:20;;;;;;;34.07;12.23;;;5.10;91.90;;;;;;5075603;28;20164;-84
2024/02/02 01:32:46;;;;;;;35.07;12.87;;;5.10;91.80;;;;;;5074957;28;20253;-85
2024/02/02 01:35:12;;;;;;;25.07;11.10;;;5.10;91.90;;;;;;5075074;28;20167;-84
2024/02/02 01:37:37;;;;;;;36.67;11.40;;;5.10;91.90;;;;;;5073934;28;20662;-84
2024/02/02 01:40:04;;;;;;;42.47;11.33;;;5.10;91.90;;;;;;5077666;28;20178;-85
2024/02/02 01:42:29;;;;;;;31.67;10.87;;;5.10;91.80;;;;;;5080967;28;20191;-86
2024/02/02 01:44:55;;;;;;;36.10;12.47;;;5.20;91.80;;;;;;5079789;28;20181;-85
2024/02/02 01:47:20;;;;;;;32.53;14.10;;;5.10;91.80;;;;;;5080004;28;20661;-85
2024/02/02 01:49:48;;;;;;;26.57;11.60;;;5.20;91.90;;;;;;5079445;28;20179;-85
2024/02/02 01:52:13;;;;;;;34.23;11.87;;;5.20;91.90;;;;;;5077446;28;20300;-86
2024/02/02 01:54:39;;;;;;;27.13;10.33;;;5.10;91.90;;;;;;5078547;28;20198;-85
2024/02/02 01:57:05;;;;;;;25.80;10.93;;;5.20;91.90;;;;;;5079158;28;20289;-85
2024/02/02 01:59:30;;;;;;;29.57;10.73;;;5.20;91.90;;;;;;5077279;28;20182;-85
2024/02/02 02:01:57;;;;;;;26.87;10.67;;;5.20;91.90;;;;;;5079160;28;20658;-86
2024/02/02 02:04:23;;;;;;;36.93;10.67;;;5.20;91.90;;;;;;5079079;28;20258;-86
2024/02/02 02:06:48;;;;;;;31.53;10.67;;;5.20;91.90;;;;;;5077063;28;20175;-85
2024/02/02 02:09:14;;;;;;;35.97;11.83;;;5.20;91.90;;;;;;5078737;28;20190;-85
2024/02/02 02:11:41;;;;;;;31.03;11.17;;;5.20;91.90;;;;;;5076414;28;20267;-85
2024/02/02 02:14:07;;;;;;;18.23;16.40;;;5.30;91.90;;;;;;5077434;28;20213;-86
2024/02/02 02:16:33;;;;;;;32.90;18.67;;;5.30;91.80;;;;;;5078233;28;20190;-85
2024/02/02 02:18:58;;;;;;;37.37;18.90;;;5.20;91.80;;;;;;5078289;28;20638;-85
2024/02/02 02:21:28;;;;;;;35.10;18.53;;;5.30;91.80;;;;;;5077385;28;20278;-85
2024/02/02 02:23:54;;;;;;;41.93;20.83;;;5.20;91.90;;;;;;5078236;28;20225;-85
2024/02/02 02:26:20;;;;;;;38.37;20.50;;;5.20;91.90;;;;;;5077463;28;20175;-86
2024/02/02 02:28:46;;;;;;;31.90;17.93;;;5.20;92.00;;;;;;5077926;28;20201;-86
2024/02/02 02:31:13;;;;;;;34.40;18.73;;;5.30;91.90;;;;;;5076433;28;20206;-85
2024/02/02 02:33:40;;;;;;;35.60;18.77;;;5.30;91.80;;;;;;5077791;28;20164;-85
2024/02/02 02:36:07;;;;;;;35.50;18.50;;;5.30;91.90;;;;;;5075988;28;20644;-85
2024/02/02 02:38:33;;;;;;;34.20;19.73;;;5.20;91.90;;;;;;5076137;28;20167;-86
2024/02/02 02:40:59;;;;;;;18.70;16.70;;;5.30;91.90;;;;;;5076105;28;20239;-85
2024/02/02 02:43:27;;;;;;;31.97;17.57;;;5.30;91.80;;;;;;5077770;28;20241;-85
2024/02/02 02:45:53;;;;;;;31.87;19.00;;;5.30;91.90;;;;;;5075633;28;20270;-85
2024/02/02 02:48:19;;;;;;;30.85;17.20;;;5.30;91.80;;;;;;5077493;28;20178;-85
2024/02/02 02:50:44;;;;;;;29.33;12.13;;;5.30;91.90;;;;;;5076897;28;20241;-85
2024/02/02 02:53:10;;;;;;;19.93;9.77;;;5.30;91.90;;;;;;5076069;28;20211;-85
2024/02/02 02:55:35;;;;;;;27.43;10.97;;;5.20;92.00;;;;;;5075959;28;20186;-85
2024/02/02 02:58:01;;;;;;;30.40;13.20;;;5.30;91.90;;;;;;5076063;28;20182;-85
2024/02/02 03:00:28;;;;;;;27.30;11.73;;;5.30;91.90;;;;;;5076283;28;20183;-85
2024/02/02 03:02:54;;;;;;;33.40;13.53;;;5.20;91.90;;;;;;5075794;28;20199;-85
2024/02/02 03:05:20;;;;;;;34.80;14.07;;;5.30;91.90;;;;;;5076248;28;20179;-85
2024/02/02 03:07:46;;;;;;;24.37;11.77;;;5.30;91.80;;;;;;5077528;28;20626;-85
2024/02/02 03:10:12;;;;;;;29.63;11.40;;;5.30;91.70;;;;;;5077869;28;20175;-85
2024/02/02 03:12:37;;;;;;;11.00;8.10;;;5.30;91.70;;;;;;5076306;28;20207;-85
2024/02/02 03:15:03;;;;;;;39.80;13.33;;;5.30;91.80;;;;;;5078009;28;20172;-86
2024/02/02 03:17:29;;;;;;;22.53;12.47;;;5.30;91.70;;;;;;5075515;28;20621;-85
2024/02/02 03:19:54;;;;;;;36.83;13.97;;;5.30;91.80;;;;;;5077047;28;20549;-85
2024/02/02 03:22:20;;;;;;;32.87;14.60;;;5.30;91.70;;;;;;5078139;28;20191;-85
2024/02/02 03:24:46;;;;;;;37.73;12.77;;;5.30;91.70;;;;;;5077754;28;20547;-85
2024/02/02 03:27:11;;;;;;;33.07;13.77;;;5.30;91.70;;;;;;5076302;28;20178;-85
2024/02/02 03:29:37;;;;;;;47.67;15.07;;;5.30;91.60;;;;;;5076266;28;20182;-85
2024/02/02 03:32:03;;;;;;;31.30;13.50;;;5.30;91.70;;;;;;5076193;28;20293;-85
2024/02/02 03:34:29;;;;;;;33.03;13.70;;;5.30;91.70;;;;;;5077046;28;20179;-85
2024/02/02 03:36:54;;;;;;;20.37;11.20;;;5.30;91.80;;;;;;5076870;28;20182;-85
2024/02/02 03:39:20;;;;;;;37.87;14.87;;;5.30;91.80;;;;;;5076388;28;20179;-85
2024/02/02 03:41:45;;;;;;;31.63;13.13;;;5.40;91.80;;;;;;5076887;28;20199;-86
2024/02/02 03:44:11;;;;;;;33.50;14.53;;;5.40;91.70;;;;;;5076674;28;20171;-85
2024/02/02 03:46:37;;;;;;;32.17;12.47;;;5.30;91.80;;;;;;5078263;28;20262;-85
2024/02/02 03:49:02;;;;;;;42.40;14.80;;;5.30;91.80;;;;;;5076796;28;20186;-86
2024/02/02 03:51:28;;;;;;;39.73;15.40;;;5.30;91.90;;;;;;5076477;28;20214;-85
2024/02/02 03:53:53;;;;;;;38.53;15.67;;;5.40;91.90;;;;;;5078364;28;20265;-85
2024/02/02 03:56:19;;;;;;;28.97;13.30;;;5.30;91.90;;;;;;5077112;28;20167;-85
2024/02/02 03:58:45;;;;;;;25.90;13.90;;;5.30;91.90;;;;;;5077546;28;20190;-85
2024/02/02 04:01:10;;;;;;;39.43;15.53;;;5.30;91.90;;;;;;5076471;28;20191;-86
2024/02/02 04:03:36;;;;;;;30.23;14.53;;;5.40;91.80;;;;;;5076959;28;20638;-85
2024/02/02 04:06:02;;;;;;;31.20;15.30;;;5.40;91.80;;;;;;5078227;28;20163;-85
2024/02/02 04:08:28;;;;;;;50.20;18.93;;;5.50;91.80;;;;;;5077098;28;20179;-85
2024/02/02 04:10:54;;;;;;;32.20;15.23;;;5.40;91.70;;;;;;5076960;28;20647;-85
2024/02/02 04:13:19;;;;;;;45.63;16.80;;;5.40;91.80;;;;;;5076784;28;20206;-85
2024/02/02 04:15:45;;;;;;;34.70;16.23;;;5.40;91.90;;;;;;5078340;28;20241;-85
2024/02/02 04:18:10;;;;;;;34.87;15.87;;;5.50;91.90;;;;;;5076868;28;20209;-86
2024/02/02 04:20:36;;;;;;;35.83;16.20;;;5.50;91.80;;;;;;5076965;28;20201;-86
2024/02/02 04:23:01;;;;;;;41.33;16.73;;;5.50;91.80;;;;;;5077407;28;20675;-85
2024/02/02 04:25:27;;;;;;;20.27;12.87;;;5.60;91.70;;;;;;5077038;28;20179;-85
2024/02/02 04:27:53;;;;;;;40.10;17.07;;;5.50;91.60;;;;;;5077754;28;20567;-86
2024/02/02 04:30:19;;;;;;;42.63;16.43;;;5.60;91.60;;;;;;5077003;28;20204;-86
2024/02/02 04:32:45;;;;;;;33.13;21.27;;;5.50;91.60;;;;;;5077270;28;20214;-85
2024/02/02 04:35:10;;;;;;;38.67;22.10;;;5.50;91.60;;;;;;5077278;28;20229;-85
2024/02/02 04:37:38;;;;;;;44.93;24.13;;;5.60;91.60;;;;;;5077311;28;20172;-85
2024/02/02 04:40:04;;;;;;;47.57;25.13;;;5.60;91.60;;;;;;5078645;28;20183;-85
2024/02/02 04:42:29;;;;;;;39.97;25.53;;;5.60;91.50;;;;;;5077341;28;20616;-86
2024/02/02 04:44:55;;;;;;;38.87;26.47;;;5.60;91.40;;;;;;5079902;28;20171;-85
2024/02/02 04:47:22;;;;;;;51.23;25.67;;;5.60;91.40;;;;;;5081197;28;20211;-86
2024/02/02 04:49:48;;;;;;;31.43;22.40;;;5.60;91.50;;;;;;5081764;28;20186;-86
2024/02/02 04:52:13;;;;;;;22.80;18.53;;;5.60;91.50;;;;;;5080949;28;20211;-85
2024/02/02 04:54:39;;;;;;;35.30;20.23;;;5.60;91.40;;;;;;5080697;28;20178;-85
2024/02/02 04:57:04;;;;;;;40.53;22.30;;;5.60;91.30;;;;;;5078780;28;20556;-85
2024/02/02 04:59:30;;;;;;;39.43;25.00;;;5.70;91.20;;;;;;5075829;28;20171;-84
2024/02/02 05:01:55;;;;;;;35.50;23.60;;;5.60;91.30;;;;;;5075842;28;20198;-84
2024/02/02 05:04:21;;;;;;;44.40;25.10;;;5.60;91.20;;;;;;5074453;28;20225;-84
2024/02/02 05:06:47;;;;;;;41.10;26.00;;;5.70;91.20;;;;;;5074432;28;20274;-85
2024/02/02 05:09:13;;;;;;;34.43;24.97;;;5.70;91.10;;;;;;5074546;28;20186;-85
2024/02/02 05:11:38;;;;;;;37.73;15.57;;;5.70;91.10;;;;;;5074195;28;20198;-85
2024/02/02 05:14:04;;;;;;;37.60;18.10;;;5.60;91.10;;;;;;5075538;28;20174;-84
2024/02/02 05:16:29;;;;;;;29.53;17.53;;;5.60;91.20;;;;;;5075563;28;20174;-85
2024/02/02 05:18:55;;;;;;;46.97;19.13;;;5.60;91.20;;;;;;5075489;28;20256;-85
2024/02/02 05:21:20;;;;;;;43.57;20.23;;;5.60;91.10;;;;;;5074142;28;20199;-85
2024/02/02 05:23:46;;;;;;;38.23;17.80;;;5.60;91.20;;;;;;5074257;28;20172;-85
2024/02/02 05:26:11;;;;;;;35.97;16.50;;;5.60;91.30;;;;;;5074103;28;20704;-85
2024/02/02 05:28:37;;;;;;;32.90;18.60;;;5.60;91.40;;;;;;5073997;28;20187;-85
2024/02/02 05:31:03;;;;;;;40.80;16.53;;;5.60;91.40;;;;;;5073951;28;20279;-85
2024/02/02 05:33:28;;;;;;;37.30;17.17;;;5.60;91.50;;;;;;5075567;28;20199;-85
2024/02/02 05:35:54;;;;;;;39.83;17.83;;;5.50;91.60;;;;;;5075356;28;20180;-85
2024/02/02 05:38:19;;;;;;;28.53;16.13;;;5.60;91.50;;;;;;5075351;28;20171;-84
2024/02/02 05:40:45;;;;;;;27.10;17.40;;;5.50;91.50;;;;;;5073933;28;20186;-84
2024/02/02 05:43:12;;;;;;;28.53;16.00;;;5.50;91.50;;;;;;5073888;28;20224;-85
2024/02/02 05:45:38;;;;;;;40.43;16.27;;;5.50;91.50;;;;;;5073830;28;20209;-84
2024/02/02 05:48:03;;;;;;;34.83;17.40;;;5.60;91.60;;;;;;5075180;28;20247;-85
2024/02/02 05:50:29;;;;;;;41.20;16.40;;;5.50;91.50;;;;;;5073828;28;20186;-85
2024/02/02 05:52:54;;;;;;;34.63;16.30;;;5.50;91.50;;;;;;5074655;28;20214;-85
2024/02/02 05:55:20;;;;;;;49.23;19.07;;;5.60;91.50;;;;;;5072675;28;20186;-85
2024/02/02 05:57:45;;;;;;;30.63;18.07;;;5.50;91.50;;;;;;5074659;28;20547;-87
2024/02/02 06:00:12;;;;;;;40.90;20.60;;;5.60;91.40;;;;;;5074035;28;20287;-84
2024/02/02 06:02:37;;;;;;;23.07;13.93;;;5.60;91.20;;;;;;5073383;28;20686;-85
2024/02/02 06:05:03;;;;;;;36.47;18.67;;;5.60;91.30;;;;;;5074934;28;20230;-84
2024/02/02 06:07:28;;;;;;;37.30;18.57;;;5.50;91.30;;;;;;5073376;28;20201;-85
2024/02/02 06:09:54;;;;;;;38.93;17.90;;;5.50;91.30;;;;;;5073240;28;20187;-85
2024/02/02 06:12:20;;;;;;;33.57;17.70;;;5.60;91.30;;;;;;5073036;28;20203;-85
2024/02/02 06:14:45;;;;;;;35.67;17.47;;;5.60;91.20;;;;;;5073106;28;20189;-84
2024/02/02 06:17:11;;;;;;;34.60;18.20;;;5.60;91.20;;;;;;5073117;28;20196;-84
2024/02/02 06:19:37;;;;;;;23.43;15.50;;;5.60;91.20;;;;;;5074244;28;20206;-85
2024/02/02 06:22:02;;;;;;;28.20;15.90;;;5.60;91.10;;;;;;5074112;28;20226;-85
2024/02/02 06:24:28;;;;;;;41.20;17.97;;;5.70;91.00;;;;;;5074323;28;20183;-85
2024/02/02 06:26:54;;;;;;;35.63;17.30;;;5.70;90.90;;;;;;5072868;28;20218;-85
2024/02/02 06:29:19;;;;;;;34.53;18.20;;;5.70;90.90;;;;;;5073242;28;20176;-85
2024/02/02 06:31:45;;;;;;;31.50;18.17;;;5.70;90.80;;;;;;5074251;28;20202;-85
2024/02/02 06:34:10;;;;;;;38.60;18.70;;;5.70;90.80;;;;;;5074110;28;20176;-85
2024/02/02 06:36:36;;;;;;;30.27;17.23;;;5.70;90.90;;;;;;5072859;28;20179;-85
2024/02/02 06:39:02;;;;;;;38.83;19.33;;;5.70;90.90;;;;;;5072597;28;20171;-85
2024/02/02 06:41:28;;;;;;;43.23;17.33;;;5.70;91.00;;;;;;5073382;28;20222;-85
2024/02/02 06:43:53;;;;;;;30.77;18.43;;;5.60;91.10;;;;;;5072473;28;20203;-84
2024/02/02 06:46:19;;;;;;;24.57;16.23;;;5.60;91.00;;;;;;5074111;28;20180;-85
2024/02/02 06:48:44;;;;;;;;;;;5.60;91.00;;;;;;5074459;28;20229;-85
2024/02/02 06:51:10;;;;;;;;;;;5.60;91.00;;;;;;5072875;28;20356;-85
2024/02/02 06:53:36;;;;;;;;;;;5.60;91.00;;;;;;5072683;28;19925;-85
2024/02/02 06:56:08;;;;;;;;;;;5.70;91.10;;;;;;5074348;28;19958;-85
2024/02/02 06:58:37;;;;;;;;;;;5.70;91.00;;;;;;5072906;28;19915;-84
2024/02/02 07:01:03;;;;;;;;;;;5.60;91.10;;;;;;5072636;28;19908;-84
2024/02/02 07:03:31;;;;;;;;;;;5.70;90.90;;;;;;5072703;28;20007;-84
2024/02/02 07:05:56;;;;;;;;;;;5.70;91.00;;;;;;5072538;28;19955;-85
2024/02/02 07:08:22;;;;;;;;;;;5.70;90.90;;;;;;5072591;28;19905;-84
2024/02/02 07:10:56;;;;;;;;;;;5.70;90.80;;;;;;5072548;28;20357;-85
2024/02/02 07:13:22;;;;;;;;;;;5.70;90.90;;;;;;5072493;28;19908;-85
2024/02/02 07:15:47;;;;;;;;;;;5.70;90.90;;;;;;5073100;28;19954;-85
2024/02/02 07:18:30;;;;;;;;;;;5.70;90.80;;;;;;5072739;28;20303;-87
2024/02/02 07:21:01;;;;;;;34.80;23.60;;;5.70;90.80;;;;;;5073213;28;19947;-86
2024/02/02 07:23:36;;;;;;;44.80;25.80;;;5.70;90.80;;;;;;5072148;28;20091;-85
2024/02/02 07:26:06;;;;;;;40.57;22.77;;;5.70;90.70;;;;;;5073478;28;20155;-86
2024/02/02 07:28:36;;;;;;;37.50;25.40;;;5.70;90.60;;;;;;5072151;28;20168;-84
2024/02/02 07:31:02;;;;;;;40.57;26.80;;;5.80;90.50;;;;;;5072213;28;20171;-85
2024/02/02 07:33:43;;;;;;;45.60;27.93;;;5.80;90.50;;;;;;5072166;28;20207;-85
2024/02/02 07:36:31;;;;;;;37.83;18.43;;;5.70;90.50;;;;;;5072243;28;20178;-85
2024/02/02 07:38:56;;;;;;;38.37;21.50;;;5.80;90.50;;;;;;5073587;28;20163;-85
2024/02/02 07:41:24;;;;;;;37.70;20.50;;;5.80;90.50;;;;;;5072058;28;20611;-84
2024/02/02 07:43:50;;;;;;;38.97;20.03;;;5.70;90.60;;;;;;5072068;28;20175;-85
2024/02/02 07:46:16;;;;;;;45.30;20.27;;;5.70;90.80;;;;;;5072002;28;20591;-85
2024/02/02 07:48:43;;;;;;;39.13;20.50;;;5.80;90.80;;;;;;5072768;28;20175;-85
2024/02/02 07:51:09;;;;;;;45.27;21.60;;;5.80;90.90;;;;;;5073196;28;20240;-84
2024/02/02 07:53:35;;;;;;;35.37;19.70;;;5.80;90.70;;;;;;5071947;28;20218;-85
2024/02/02 07:56:01;;;;;;;35.73;19.10;;;5.80;90.60;;;;;;5071794;28;20167;-84
2024/02/02 07:58:27;;;;;;;39.43;20.60;;;5.90;90.60;;;;;;5072040;28;20182;-85
2024/02/02 08:00:53;;;;;;;39.17;20.40;;;5.90;90.50;;;;;;5071876;28;20171;-85
2024/02/02 08:03:18;;;;;;;35.23;20.67;;;5.90;90.50;;;;;;5071933;28;20258;-84
2024/02/02 08:05:45;;;;;;;33.97;21.53;;;5.90;90.50;;;;;;5071761;28;20175;-84
2024/02/02 08:08:11;;;;;;;32.00;19.93;;;5.90;90.60;;;;;;5072815;28;20176;-85
2024/02/02 08:10:41;;;;;;;43.13;19.40;;;5.90;90.60;;;;;;5072943;28;20548;-84
2024/02/02 08:13:09;;;;;;;34.53;20.67;;;5.90;90.70;;;;;;5071532;28;20203;-85
2024/02/02 08:15:34;;;;;;;45.90;21.87;;;5.90;90.80;;;;;;5072894;28;20179;-85
2024/02/02 08:18:00;;;;;;;39.33;19.87;;;5.90;90.90;;;;;;5073166;28;20541;-86
2024/02/02 08:20:25;;;;;;;;;;;5.90;90.80;;;;;;5075195;28;20148;-84
2024/02/02 08:22:51;;;;;;;38.80;20.83;;;5.90;90.90;;;;;;5075264;28;20396;-86
2024/02/02 08:25:17;;;;;;;45.03;21.27;;;5.90;90.90;;;;;;5075199;28;20183;-86
2024/02/02 08:27:42;;;;;;;40.37;19.37;;;5.90;90.80;;;;;;5075282;28;20270;-85
2024/02/02 08:30:10;;;;;;;38.53;22.33;;;5.90;90.80;;;;;;5075589;28;20184;-85
2024/02/02 08:32:37;;;;;;;38.47;24.67;;;6.00;90.70;;;;;;5075829;28;20264;-85
2024/02/02 08:35:04;;;;;;;38.70;22.43;;;6.00;90.80;;;;;;5075183;28;20635;-85
2024/02/02 08:37:30;;;;;;;29.93;20.57;;;6.00;90.90;;;;;;5075144;28;20179;-85
2024/02/02 08:39:56;;;;;;;45.80;22.53;;;6.00;90.70;;;;;;5075157;28;20662;-85
2024/02/02 08:42:23;;;;;;;44.77;19.30;;;6.00;90.70;;;;;;5074899;28;20206;-85
2024/02/02 08:44:49;;;;;;;29.57;16.60;;;6.00;90.60;;;;;;5074825;28;20663;-84
2024/02/02 08:47:15;;;;;;;40.83;21.80;;;6.00;90.60;;;;;;5075181;28;20496;-85
2024/02/02 08:49:59;;;;;;;31.50;20.07;;;6.00;90.50;;;;;;5076114;28;20195;-85
2024/02/02 08:52:35;;;;;;;39.47;16.27;;;6.00;90.50;;;;;;5074611;28;20219;-85
2024/02/02 08:55:06;;;;;;;37.73;20.40;;;6.10;90.50;;;;;;5074867;28;20220;-87
2024/02/02 08:57:47;;;;;;;36.70;17.37;;;6.00;90.50;;;;;;5074749;28;20691;-85
2024/02/02 09:00:15;;;;;;;39.90;21.20;;;6.10;90.30;;;;;;5074516;28;20216;-85
2024/02/02 09:02:55;;;;;;;22.63;13.23;;;6.10;90.20;;;;;;5058165;28;20294;-86
2024/02/02 09:05:57;;;;;;;31.63;17.10;;;6.10;90.10;;;;;;5074554;28;20179;-85
2024/02/02 09:08:40;;;;;;;40.83;17.90;;;6.20;90.00;;;;;;5075919;28;20250;-85
2024/02/02 09:11:17;;;;;;;20.07;13.83;;;6.10;90.20;;;;;;5074371;28;20196;-85
2024/02/02 09:13:46;;;;;;;41.27;17.20;;;6.20;90.30;;;;;;5074352;28;20285;-85
2024/02/02 09:16:15;;;;;;;26.87;14.17;;;6.20;90.20;;;;;;5075791;28;20571;-85
2024/02/02 09:18:44;;;;;;;40.23;18.77;;;6.10;90.30;;;;;;5075433;28;20171;-86
2024/02/02 09:21:12;;;;;;;26.23;14.87;;;6.10;90.30;;;;;;5074800;28;20198;-87
2024/02/02 09:23:43;;;;;;;30.57;21.10;;;6.20;90.30;;;;;;5074566;28;20175;-87
2024/02/02 09:26:11;;;;;;;43.97;24.13;;;6.20;90.20;;;;;;5075257;28;20179;-87
2024/02/02 09:28:41;;;;;;;48.67;19.93;;;6.20;90.30;;;;;;5075701;28;20174;-87
2024/02/02 09:31:10;;;;;;;34.33;24.80;;;6.20;90.30;;;;;;5073502;28;20285;-87
2024/02/02 09:33:38;;;;;;;45.80;25.10;;;6.20;90.30;;;;;;5074524;28;20701;-87
2024/02/02 09:36:05;;;;;;;37.30;22.43;;;6.30;90.20;;;;;;5076067;28;20195;-87
2024/02/02 09:38:32;;;;;;;24.00;19.73;;;6.30;90.00;;;;;;5075622;28;20167;-87
2024/02/02 09:41:00;;;;;;;33.83;19.83;;;6.30;89.90;;;;;;5075294;28;20194;-87
2024/02/02 09:43:50;;;;;;;32.77;21.33;;;6.30;90.00;;;;;;5075497;28;20171;-87
2024/02/02 09:46:22;;;;;;;37.90;18.07;;;6.40;90.10;;;;;;5074197;28;20175;-87
2024/02/02 09:48:56;;;;;;;32.47;18.60;;;6.40;89.90;;;;;;5075427;28;20163;-87
2024/02/02 09:51:22;;;;;;;20.33;17.47;;;6.40;89.80;;;;;;5073861;28;20650;-87
2024/02/02 09:54:18;;;;;;;24.17;17.10;;;6.40;90.10;;;;;;5075840;28;20198;-87
2024/02/02 09:57:08;;;;;;;30.43;18.13;;;6.40;89.90;;;;;;5075269;28;20171;-87
2024/02/02 09:59:40;;;;;;;21.77;16.20;;;6.40;90.20;;;;;;5075130;28;20152;-87
2024/02/02 10:02:31;;;;;;;35.57;19.73;;;6.40;90.60;;;;;;5074027;28;20195;-87
2024/02/02 10:05:10;;;;;;;31.87;18.70;;;6.40;90.60;;;;;;5075217;28;20581;-87
2024/02/02 10:08:01;;;;;;;30.10;15.53;;;6.40;90.70;;;;;;5074210;28;20167;-87
2024/02/02 10:10:52;;;;;;;24.13;13.63;;;6.40;90.70;;;;;;5075157;28;20184;-87
2024/02/02 10:13:27;;;;;;;33.87;14.93;;;6.40;90.90;;;;;;5073621;28;20271;-87
2024/02/02 10:16:16;;;;;;;27.57;14.80;;;6.40;90.90;;;;;;5073495;28;20174;-87
2024/02/02 10:19:13;;;;;;;30.40;15.13;;;6.40;90.90;;;;;;5073637;28;20178;-87
2024/02/02 10:22:06;;;;;;;28.73;12.83;;;6.40;91.00;;;;;;5073554;28;20238;-87
2024/02/02 10:25:01;;;;;;;29.57;15.13;;;6.40;91.00;;;;;;5075258;28;20168;-87
2024/02/02 10:27:36;;;;;;;28.93;14.03;;;6.40;90.90;;;;;;5073651;28;20199;-87
2024/02/02 10:30:26;;;;;;;38.93;17.23;;;6.50;90.80;;;;;;5074836;28;20635;-87
2024/02/02 10:33:10;;;;;;;27.50;14.50;;;6.50;90.70;;;;;;5073419;28;20747;-87
2024/02/02 10:36:00;;;;;;;37.10;17.50;;;6.50;90.70;;;;;;5073524;28;20206;-87
2024/02/02 10:38:44;;;;;;;17.60;11.43;;;6.50;90.90;;;;;;5073449;28;20167;-87
2024/02/02 10:41:37;;;;;;;34.93;17.03;;;6.50;90.90;;;;;;5073950;28;20341;-87
2024/02/02 10:44:55;;;;;;;30.50;15.70;;;6.50;90.80;;;;;;5073106;28;20171;-87
2024/02/02 10:47:21;;;;;;;25.87;12.87;;;6.50;90.80;;;;;;4995961;28;20598;-87
2024/02/02 10:49:59;;;;;;;37.63;16.27;;;6.50;91.10;;;;;;5065495;28;20179;-87
2024/02/02 10:52:43;;;;;;;34.30;12.20;;;6.50;91.00;;;;;;5073916;28;20215;-87
2024/02/02 10:55:31;;;;;;;22.77;13.23;;;6.50;90.90;;;;;;5072817;28;20296;-87
2024/02/02 10:58:25;;;;;;;16.20;11.13;;;6.60;90.90;;;;;;5072677;28;20262;-87
2024/02/02 11:01:00;;;;;;;33.77;16.23;;;6.60;91.10;;;;;;5072793;28;20199;-87
2024/02/02 11:03:43;;;;;;;32.70;14.47;;;6.60;91.00;;;;;;5072718;28;20232;-87
2024/02/02 11:06:27;;;;;;;23.67;11.47;;;6.60;91.10;;;;;;5073728;28;20617;-87
2024/02/02 11:09:03;;;;;;;36.97;14.60;;;6.60;91.20;;;;;;5073992;28;20156;-87
2024/02/02 11:11:32;;;;;;;29.47;13.03;;;6.70;91.10;;;;;;5072392;28;20199;-87
2024/02/02 11:14:10;;;;;;;48.17;16.77;;;6.70;91.10;;;;;;5072820;28;20630;-87
2024/02/02 11:16:38;;;;;;;38.00;14.87;;;6.70;91.20;;;;;;5073774;28;20507;-87
2024/02/02 11:19:15;;;;;;;22.23;10.43;;;6.70;91.20;;;;;;5072541;28;20248;-87
2024/02/02 11:21:42;;;;;;;35.13;14.80;;;6.70;91.30;;;;;;5072386;28;20195;-87
2024/02/02 11:24:13;;;;;;;24.07;12.43;;;6.70;91.20;;;;;;5072462;28;20651;-87
2024/02/02 11:27:03;;;;;;;29.07;16.00;;;6.70;91.30;;;;;;5073467;28;20159;-87
2024/02/02 11:29:34;;;;;;;47.27;20.33;;;6.80;91.30;;;;;;5072239;28;20168;-87
2024/02/02 11:32:06;;;;;;;34.80;19.13;;;6.80;91.40;;;;;;5071943;28;20293;-87
2024/02/02 11:34:49;;;;;;;21.80;15.20;;;6.80;91.40;;;;;;5072379;28;20258;-87
2024/02/02 11:37:45;;;;;;;43.03;17.77;;;6.80;91.40;;;;;;5072311;28;20183;-87
2024/02/02 11:40:13;;;;;;;30.17;17.57;;;6.80;91.40;;;;;;5072201;28;20167;-87
2024/02/02 11:42:40;;;;;;;22.67;12.50;;;6.80;91.50;;;;;;5072074;28;20215;-87
2024/02/02 11:45:12;;;;;;;26.77;15.93;;;6.80;91.60;;;;;;5073362;28;20253;-87
2024/02/02 11:47:53;;;;;;;23.43;15.23;;;6.90;91.50;;;;;;5072471;28;20175;-87
2024/02/02 11:50:22;;;;;;;36.33;15.83;;;6.90;91.50;;;;;;5072000;28;20224;-87
2024/02/02 11:53:22;;;;;;;32.43;16.80;;;7.00;91.40;;;;;;5071808;28;20765;-87
2024/02/02 11:55:54;;;;;;;36.10;16.87;;;6.90;91.50;;;;;;5075985;28;20577;-87
2024/02/02 11:58:20;;;;;;;41.03;17.57;;;7.00;91.50;;;;;;5077476;28;20156;-87
2024/02/02 12:01:12;;;;;;;38.57;20.27;;;7.00;91.50;;;;;;5076149;28;20532;-86
2024/02/02 12:04:17;;;;;;;31.27;16.03;;;7.00;91.40;;;;;;5076038;28;20171;-87
2024/02/02 12:06:56;;;;;;;23.97;16.97;;;7.00;91.60;;;;;;5076257;28;20604;-87
2024/02/02 12:09:31;;;;;;;22.00;14.63;;;7.10;91.50;;;;;;5076965;28;20167;-87
2024/02/02 12:11:58;;;;;;;38.33;18.40;;;7.00;91.50;;;;;;5076935;28;20682;-87
2024/02/02 12:14:31;;;;;;;40.00;19.53;;;7.10;91.50;;;;;;5075810;28;20171;-87
2024/02/02 12:16:58;;;;;;;32.63;14.33;;;7.10;91.60;;;;;;5075697;28;20171;-87
2024/02/02 12:19:24;;;;;;;25.50;11.07;;;7.10;91.60;;;;;;5075725;28;20171;-87
2024/02/02 12:21:51;;;;;;;29.93;12.67;;;7.10;91.50;;;;;;5076920;28;20203;-87
2024/02/02 12:24:17;;;;;;;27.53;15.33;;;7.20;91.40;;;;;;5075698;28;20176;-87
2024/02/02 12:26:44;;;;;;;38.20;16.30;;;7.10;91.50;;;;;;5075802;28;20182;-88
2024/02/02 12:29:11;;;;;;;29.97;12.83;;;7.20;91.50;;;;;;5075919;28;20176;-87
2024/02/02 12:31:36;;;;;;;36.33;15.37;;;7.20;91.50;;;;;;5075332;28;20675;-87
2024/02/02 12:34:03;;;;;;;30.70;14.60;;;7.20;91.60;;;;;;5075690;28;20182;-87
2024/02/02 12:36:29;;;;;;;29.27;14.93;;;7.20;91.60;;;;;;5075931;28;20175;-87
2024/02/02 12:38:58;;;;;;;30.57;12.80;;;7.20;91.60;;;;;;5075239;28;20701;-87
2024/02/02 12:41:23;;;;;;;31.33;13.67;;;7.20;91.50;;;;;;5076147;28;20547;-87
2024/02/02 12:43:49;;;;;;;28.47;14.27;;;7.30;91.50;;;;;;5075999;28;20179;-87
2024/02/02 12:46:15;;;;;;;31.93;15.70;;;7.30;91.50;;;;;;5076591;28;20277;-87
2024/02/02 12:48:40;;;;;;;41.20;16.43;;;7.30;91.50;;;;;;5075643;28;20183;-88
2024/02/02 12:51:06;;;;;;;26.90;12.30;;;7.30;91.50;;;;;;5075646;28;20221;-87